Aalborg, Denmark

2:36 PM CEST on March 29, 2015 (GMT +0200)
Goegeurtvej | | Change Station
CLOSE
Current Station
Personal Weather Station
Location: Vodskov,
Elevation: 33 ft
Nearby Weather Stations

Elev 33 ft 57.11 °N, 10.01 °E | Updated 53 seconds ago

Mostly Cloudy
Mostly Cloudy
51.1 °F
Feels Like 51.1 °F
N
2.5
Wind Variable Wind from WSW
Gusts 7.0 mph

Today
High -- | Low -- °F
--% Chance of Precip.
Yesterday
High -- | Low -- °F
Precip. -- in
6:59 AM 7:52 PM
Waxing Gibbous, 71% visible
Pressure 29.18 in
Visibility 6.2 miles
Clouds Scattered Clouds 2500 ft
Mostly Cloudy 4000 ft
Dew Point 43 °F
Humidity 75%
Rainfall 0.03 in
Snow Depth Not available.
UV 2 out of 12
Pollen Not available.
Air Quality Not available.
Flu Activity Not available.
METAR EKYT 291220Z 26010KT 9999 SCT025 BKN040 10/05 Q0988

More Conditions Fewer Conditions

Pressure 29.18 in
Visibility 6.2 miles
Clouds Scattered Clouds 2500 ft
Mostly Cloudy 4000 ft
Dew Point 43 °F
Humidity 75%
Rainfall 0.03 in
Snow Depth Not available.
UV 2 out of 12
Pollen Not available.
Air Quality Not available.
Flu Activity Not available.
METAR EKYT 291220Z 26010KT 9999 SCT025 BKN040 10/05 Q0988

More Conditions Fewer Conditions

10-Day Weather Forecast

Almanac

Astronomy

Mar. 29, 2015 Rise Set
Actual Time
Civil Twilight
Nautical Twilight
Astronomical Twilight
Moon
Length of Visible Light
Length of Day
Tomorrow will be .
, % of the Moon is Illuminated

Today's Extremes

Country Highs Country Lows

Community

WunderPhotos

Upload Photos

1,809,230 photos uploaded!

WunderBlogs® & News

Nearby

Air Quality

  Air Quality AQ Index Pollutant
Not available.

Snow Depth

Station Depth Elevation

Earthquake Activity

City Distance Mag. Time & Date
Minimum magnitude displayed is 2.5.

Coastal Water Temperatures

Place Temperature

Stations

Nearby Weather Stations

Station Location Temp. Windchill Dew Point Humidity Wind Precip. Elev Updated Type